Current Conditions
Mostly Clear
Conditions



Rainfall
0.00 (mm) - 0.00 (in)
Pressure
1020.92 (hPa) - 30.15 (inHG)
Visibility

10.0 (km) - 6.2 (miles)
   Temperature
20  °C
68°F
13  °C
Dewpoint
64  %
 Humidity
   Wind Speed
16  km/h
9  kts
10  mph
4.5  m/s
   Wind Direction
 20°
North North
East
   Airport Data
LTBA
Location Atatürk International 10 km (6.22 mi)
Metar :LTBA 201420Z 02009KT CAVOK 20/13 Q1021 NOSIG RMK RWY17L 02006KT RWY05 35008KT RWY23 02008KT
Sun 20th October 17:20 pm
   Raw Metar Info
Raw METAR is the most common format in the world for the transmission of observational weather data. It is highly standardized through the International Civil Aviation Organization (ICAO), which allows it to be understood throughout most of the world.
   API Info
Data Provided by
https://www.checkwx.com/weather/
   © Info
CSS/SVG/PHP scripts were developed by weather34.com for use in the weather34 template © 2015-2019

Guide Info provided by Metar-Wikipedia